Time;durP1;ratioP1;P1;durP2;ratioP2;P2;SDS_P1;SDS_P2;PMS_P1;PMS_P2;Temp;Humidity;BMP_temperature;BMP_pressure;BME280_temperature;BME280_humidity;BME280_pressure;Samples;Min_cycle;Max_cycle;Signal;HPM_P1;HPM_P2
2022/01/06 00:00:45;;;;;;;19.50;15.73;;;;;;;5.92;63.02;94094.31;6192739;23;20194;-64
2022/01/06 00:03:11;;;;;;;18.77;14.97;;;;;;;6.03;62.93;94047.19;6168057;23;20178;-62
2022/01/06 00:05:37;;;;;;;18.03;14.73;;;;;;;6.09;62.60;94059.63;6167785;23;20198;-63
2022/01/06 00:08:03;;;;;;;16.47;14.07;;;;;;;6.03;63.24;94062.84;6170064;23;20215;-64
2022/01/06 00:10:30;;;;;;;18.57;15.03;;;;;;;6.04;62.77;94069.72;6169825;23;20249;-63
2022/01/06 00:15:35;;;;;;;22.87;14.70;;;;;;;6.14;62.51;94083.50;6195637;23;20186;-62
2022/01/06 00:25:58;;;;;;;20.50;15.30;;;;;;;5.62;64.17;94064.97;6193828;23;20240;-66
2022/01/06 00:28:25;;;;;;;17.37;14.57;;;;;;;5.64;64.09;94086.50;6194734;23;20244;-65
2022/01/06 00:30:50;;;;;;;18.67;15.67;;;;;;;5.69;63.83;94079.09;6194518;23;20208;-62
2022/01/06 00:33:17;;;;;;;18.73;14.90;;;;;;;5.83;63.74;94069.94;6171142;23;20269;-64
2022/01/06 00:35:43;;;;;;;17.87;14.37;;;;;;;5.75;63.69;94073.28;6193516;23;20205;-66
2022/01/06 00:38:09;;;;;;;16.40;14.37;;;;;;;5.73;63.60;94096.06;6168581;23;20213;-63
2022/01/06 00:40:35;;;;;;;17.77;15.43;;;;;;;5.74;63.59;94076.84;6167398;23;20254;-64
2022/01/06 00:43:03;;;;;;;15.90;14.20;;;;;;;5.70;63.71;94080.72;6169054;23;20194;-63
2022/01/06 00:45:29;;;;;;;19.30;14.73;;;;;;;5.68;63.63;94082.63;6168050;23;20179;-64
2022/01/06 00:47:55;;;;;;;17.47;14.20;;;;;;;5.71;63.66;94071.91;6170200;23;20189;-61
2022/01/06 00:50:20;;;;;;;18.30;14.63;;;;;;;5.71;63.51;94066.69;6170238;23;20194;-62
2022/01/06 00:52:46;;;;;;;16.60;13.57;;;;;;;5.70;63.59;94085.13;6168757;23;20253;-63
2022/01/06 00:55:11;;;;;;;15.23;13.23;;;;;;;5.72;62.88;94099.66;6195350;23;20194;-63
2022/01/06 00:57:38;;;;;;;18.93;15.13;;;;;;;5.56;63.39;94096.84;6194933;23;20196;-64
2022/01/06 01:00:04;;;;;;;16.73;13.53;;;;;;;5.63;63.24;94069.22;6170951;23;20193;-62
2022/01/06 01:02:30;;;;;;;16.47;13.10;;;;;;;5.63;63.43;94091.88;6169593;23;20194;-65
2022/01/06 01:04:55;;;;;;;15.63;13.30;;;;;;;5.70;63.26;94111.19;6169370;23;20304;-62
2022/01/06 01:07:21;;;;;;;14.10;11.50;;;;;;;5.82;62.91;94067.47;6195541;23;20206;-61
2022/01/06 01:09:46;;;;;;;15.93;12.63;;;;;;;5.77;62.92;94093.16;6170074;23;20198;-63
2022/01/06 01:12:12;;;;;;;15.60;12.23;;;;;;;5.79;63.12;94105.09;6169960;23;20174;-62
2022/01/06 01:14:53;;;;;;;13.07;11.50;;;;;;;5.90;62.84;94101.47;6168764;23;20204;-62
2022/01/06 01:17:18;;;;;;;12.20;11.00;;;;;;;5.98;62.52;94098.97;6168170;23;20248;-66
2022/01/06 01:19:44;;;;;;;12.27;10.57;;;;;;;5.99;62.29;94095.44;6167837;23;20206;-62
2022/01/06 01:22:10;;;;;;;12.47;10.57;;;;;;;6.16;62.72;94094.63;6194825;23;20198;-63
2022/01/06 01:24:35;;;;;;;12.00;10.07;;;;;;;6.04;62.44;94097.56;6170304;23;20284;-62
2022/01/06 01:27:01;;;;;;;12.83;11.20;;;;;;;6.03;62.49;94122.84;6170228;23;20197;-63
2022/01/06 01:29:29;;;;;;;13.33;11.70;;;;;;;6.05;62.41;94088.78;6194999;23;20201;-66
2022/01/06 01:31:55;;;;;;;11.67;10.47;;;;;;;6.04;62.74;94095.81;6167022;23;20202;-63
2022/01/06 01:34:25;;;;;;;12.23;10.27;;;;;;;6.04;62.48;94100.19;6193450;23;20257;-63
2022/01/06 01:36:52;;;;;;;12.77;10.53;;;;;;;6.03;62.53;94083.72;6167965;23;20197;-65
2022/01/06 01:39:18;;;;;;;12.90;10.27;;;;;;;5.95;63.12;94094.06;6196274;23;20181;-63
2022/01/06 01:41:43;;;;;;;11.50;10.00;;;;;;;6.03;62.93;94077.69;6195113;23;20198;-66
2022/01/06 01:44:13;;;;;;;12.73;10.40;;;;;;;6.01;63.39;94093.47;6169983;23;20265;-65
2022/01/06 01:46:45;;;;;;;15.47;13.10;;;;;;;5.74;62.93;94089.06;6194245;23;20229;-63
2022/01/06 01:51:45;;;;;;;16.77;13.00;;;;;;;5.59;63.16;94087.91;6194721;23;20198;-63
2022/01/06 01:54:10;;;;;;;13.90;12.40;;;;;;;5.48;63.79;94055.00;6169115;23;20256;-66
2022/01/06 01:56:37;;;;;;;13.77;12.37;;;;;;;5.50;64.01;94072.16;6169192;23;20206;-67
2022/01/06 01:59:03;;;;;;;15.83;12.73;;;;;;;5.39;64.02;94069.72;6169868;23;20205;-64
2022/01/06 02:01:28;;;;;;;14.17;11.90;;;;;;;5.43;64.23;94029.38;6169892;23;20213;-66
2022/01/06 02:03:54;;;;;;;14.33;11.07;;;;;;;5.59;64.30;94083.53;6168691;23;20209;-64
2022/01/06 02:06:20;;;;;;;13.57;11.67;;;;;;;5.46;64.33;94083.03;6194735;23;20204;-63
2022/01/06 02:08:46;;;;;;;10.63;9.40;;;;;;;5.64;64.41;94057.84;6168804;23;20186;-67
2022/01/06 02:11:12;;;;;;;11.57;9.77;;;;;;;5.71;64.10;94045.00;6169177;23;20202;-64
2022/01/06 02:13:48;;;;;;;11.07;9.90;;;;;;;5.73;63.61;94084.81;6167845;23;20194;-61
2022/01/06 02:16:18;;;;;;;12.23;9.33;;;;;;;5.65;63.75;94069.88;6194634;23;20198;-65
2022/01/06 02:18:43;;;;;;;11.77;9.33;;;;;;;5.76;63.66;94100.19;6168729;23;20198;-64
2022/01/06 02:21:09;;;;;;;10.43;9.33;;;;;;;5.79;63.06;94084.22;6169301;23;20188;-63
2022/01/06 02:23:34;;;;;;;9.80;8.80;;;;;;;5.79;63.38;94039.88;6168325;23;20194;-65
2022/01/06 02:26:00;;;;;;;12.07;9.33;;;;;;;5.76;63.16;94068.88;6168118;23;20214;-63
2022/01/06 02:28:25;;;;;;;10.57;8.73;;;;;;;5.81;63.10;94089.31;6168999;23;20194;-63
2022/01/06 02:30:51;;;;;;;10.70;9.60;;;;;;;5.73;63.68;94098.69;6167758;23;20197;-64
2022/01/06 02:33:20;;;;;;;12.23;9.30;;;;;;;5.72;63.37;94076.19;6169800;23;20178;-64
2022/01/06 02:35:47;;;;;;;10.60;8.93;;;;;;;5.63;63.45;94099.69;6168725;23;20198;-64
2022/01/06 02:38:12;;;;;;;11.97;9.43;;;;;;;5.65;63.30;94098.56;6193370;23;20300;-64
2022/01/06 02:40:38;;;;;;;11.67;8.90;;;;;;;5.75;62.86;94122.84;6168277;23;20202;-63
2022/01/06 02:43:06;;;;;;;11.83;9.40;;;;;;;5.70;63.05;94104.19;6168852;23;20326;-66
2022/01/06 02:45:32;;;;;;;10.20;9.20;;;;;;;5.69;63.01;94118.22;6168547;23;20182;-65
2022/01/06 02:48:00;;;;;;;12.57;9.80;;;;;;;5.58;63.83;94107.94;6169234;23;20241;-64
2022/01/06 02:50:26;;;;;;;11.53;9.90;;;;;;;5.56;63.67;94109.88;6168850;23;20228;-63
2022/01/06 02:52:52;;;;;;;14.13;10.53;;;;;;;5.53;63.65;94113.59;6169048;23;20206;-64
2022/01/06 02:55:19;;;;;;;11.53;10.37;;;;;;;5.45;64.03;94113.50;6194174;23;20219;-63
2022/01/06 02:57:45;;;;;;;12.83;10.37;;;;;;;5.44;64.09;94104.00;6192837;23;20210;-67
2022/01/06 03:00:14;;;;;;;12.47;10.50;;;;;;;5.42;64.16;94099.91;6193721;23;20174;-65
2022/01/06 03:02:42;;;;;;;12.27;10.00;;;;;;;5.37;64.03;94086.47;6192819;23;20221;-64
2022/01/06 03:05:08;;;;;;;13.17;10.90;;;;;;;5.45;64.26;94068.31;6194629;23;20202;-63
2022/01/06 03:07:34;;;;;;;14.07;10.97;;;;;;;5.26;64.86;94103.94;6168905;23;20256;-66
2022/01/06 03:10:02;;;;;;;12.30;11.00;;;;;;;5.14;64.99;94102.47;6168857;23;20201;-64
2022/01/06 03:12:39;;;;;;;13.43;10.70;;;;;;;5.19;64.95;94084.63;6168546;23;20197;-63
2022/01/06 03:15:25;;;;;;;12.57;10.63;;;;;;;5.25;64.93;94102.28;6169119;23;20185;-64
2022/01/06 03:17:55;;;;;;;12.23;10.07;;;;;;;5.23;64.64;94104.22;6166276;23;20201;-64
2022/01/06 03:20:23;;;;;;;14.53;11.47;;;;;;;5.13;65.04;94106.03;6191910;23;20252;-63
2022/01/06 03:22:50;;;;;;;12.67;10.80;;;;;;;5.10;65.34;94119.34;6167203;23;20260;-65
2022/01/06 03:25:15;;;;;;;13.37;11.30;;;;;;;5.14;65.42;94086.84;6194399;23;20198;-66
2022/01/06 03:27:41;;;;;;;12.73;10.40;;;;;;;5.17;65.28;94094.38;6169007;23;20197;-64
2022/01/06 03:30:10;;;;;;;11.40;10.30;;;;;;;5.04;65.16;94091.25;6168831;23;20211;-62
2022/01/06 03:32:36;;;;;;;11.77;10.33;;;;;;;5.12;65.17;94112.22;6167425;23;20204;-65
2022/01/06 03:35:02;;;;;;;12.53;10.57;;;;;;;5.14;64.92;94115.50;6168231;23;20202;-63
2022/01/06 03:37:27;;;;;;;12.03;10.10;;;;;;;5.21;65.05;94094.91;6168704;23;20206;-64
2022/01/06 03:39:53;;;;;;;13.57;10.73;;;;;;;5.24;64.79;94095.44;6194216;23;20233;-64
2022/01/06 03:42:18;;;;;;;16.07;10.77;;;;;;;5.22;64.88;94105.19;6196269;23;20192;-63
2022/01/06 03:44:44;;;;;;;13.40;11.07;;;;;;;4.96;65.21;94091.13;6195674;23;20215;-65
2022/01/06 03:47:09;;;;;;;13.80;10.93;;;;;;;4.89;65.74;94122.09;6170791;23;20190;-67
2022/01/06 03:49:35;;;;;;;12.13;10.83;;;;;;;4.86;66.16;94104.16;6169075;23;20216;-65
2022/01/06 03:52:01;;;;;;;12.93;10.50;;;;;;;5.01;65.58;94121.00;6168345;23;20256;-63
2022/01/06 03:54:26;;;;;;;12.10;10.27;;;;;;;4.94;65.59;94090.44;6169777;23;20196;-64
2022/01/06 03:56:52;;;;;;;12.23;10.93;;;;;;;4.91;65.83;94121.97;6193992;23;20213;-64
2022/01/06 03:59:18;;;;;;;11.87;10.33;;;;;;;4.80;66.21;94121.16;6196319;23;20210;-68
2022/01/06 04:01:45;;;;;;;11.93;10.30;;;;;;;4.91;66.16;94114.16;6195640;23;20213;-68
2022/01/06 04:04:11;;;;;;;12.90;10.57;;;;;;;4.91;65.69;94119.38;6195890;23;20194;-64
2022/01/06 04:06:37;;;;;;;14.53;10.10;;;;;;;4.90;66.08;94128.97;6194076;23;20244;-67
2022/01/06 04:09:03;;;;;;;11.50;10.33;;;;;;;5.00;65.51;94090.72;6171070;23;20182;-64
2022/01/06 04:11:29;;;;;;;12.33;10.07;;;;;;;5.00;65.72;94136.78;6195031;23;20217;-64
2022/01/06 04:13:55;;;;;;;12.27;10.03;;;;;;;4.95;65.56;94126.78;6169739;23;20328;-64
2022/01/06 04:16:21;;;;;;;11.70;10.23;;;;;;;4.98;65.91;94110.88;6169985;23;20190;-65
2022/01/06 04:18:46;;;;;;;23.40;10.80;;;;;;;5.02;65.67;94133.06;6170367;23;20217;-63
2022/01/06 04:21:13;;;;;;;15.77;10.20;;;;;;;4.97;65.68;94132.69;6197236;23;20185;-63
2022/01/06 04:23:39;;;;;;;11.60;10.40;;;;;;;4.97;66.02;94129.22;6195505;23;20328;-63
2022/01/06 04:26:04;;;;;;;13.03;9.90;;;;;;;4.96;65.97;94109.38;6170128;23;20213;-63
2022/01/06 04:28:30;;;;;;;13.03;10.83;;;;;;;4.93;66.25;94128.69;6168361;23;20224;-62
2022/01/06 04:30:55;;;;;;;14.97;11.30;;;;;;;4.92;66.31;94147.91;6193007;23;20198;-63
2022/01/06 04:33:21;;;;;;;13.80;10.50;;;;;;;4.93;66.39;94107.03;6192129;23;20182;-65
2022/01/06 04:35:47;;;;;;;15.13;11.93;;;;;;;4.99;66.10;94158.56;6169760;23;20189;-63
2022/01/06 04:38:12;;;;;;;13.50;11.57;;;;;;;4.79;66.80;94163.00;6170317;23;20202;-63
2022/01/06 04:40:38;;;;;;;13.03;11.00;;;;;;;4.84;67.09;94125.16;6169171;23;20228;-63
2022/01/06 04:43:05;;;;;;;13.47;11.00;;;;;;;4.82;66.74;94127.06;6169841;23;20242;-63
2022/01/06 04:45:30;;;;;;;14.47;10.90;;;;;;;4.90;67.27;94136.78;6168280;23;20249;-63
2022/01/06 04:47:56;;;;;;;16.97;11.57;;;;;;;4.89;67.29;94153.38;6194377;23;20229;-64
2022/01/06 04:50:21;;;;;;;19.23;11.40;;;;;;;4.95;66.84;94136.38;6167646;23;20207;-64
2022/01/06 04:52:47;;;;;;;14.03;11.93;;;;;;;4.89;67.13;94161.19;6167930;23;20260;-65
2022/01/06 04:55:12;;;;;;;13.37;11.27;;;;;;;4.85;67.14;94173.66;6170491;23;20209;-64
2022/01/06 04:57:38;;;;;;;15.77;11.40;;;;;;;4.95;67.50;94162.44;6169478;23;20209;-63
2022/01/06 05:00:05;;;;;;;14.27;11.30;;;;;;;4.93;67.26;94140.91;6170256;23;20178;-67
2022/01/06 05:02:31;;;;;;;13.80;11.80;;;;;;;4.92;67.19;94206.97;6194864;23;20206;-64
2022/01/06 05:04:56;;;;;;;13.70;11.47;;;;;;;4.66;66.83;94145.03;6168908;23;20217;-63
2022/01/06 05:07:22;;;;;;;13.67;11.40;;;;;;;4.71;67.36;94119.41;6168405;23;20217;-63
2022/01/06 05:09:47;;;;;;;13.53;11.73;;;;;;;4.70;67.66;94175.03;6166797;23;20189;-61
2022/01/06 05:12:13;;;;;;;14.23;10.73;;;;;;;4.60;67.61;94156.81;6169817;23;20237;-61
2022/01/06 05:14:39;;;;;;;13.53;11.73;;;;;;;4.67;67.76;94158.88;6168650;23;20202;-63
2022/01/06 05:17:05;;;;;;;20.70;13.60;;;;;;;4.74;67.52;94152.16;6167735;23;20269;-65
2022/01/06 05:19:31;;;;;;;16.17;12.00;;;;;;;4.79;67.34;94165.59;6167643;23;20209;-62
2022/01/06 05:21:56;;;;;;;13.93;11.80;;;;;;;4.77;67.40;94159.69;6168795;23;20205;-62
2022/01/06 05:24:23;;;;;;;15.57;12.47;;;;;;;4.72;67.72;94136.66;6169039;23;20209;-62
2022/01/06 05:26:49;;;;;;;19.37;13.87;;;;;;;4.77;67.59;94150.09;6193470;23;20174;-63
2022/01/06 05:29:15;;;;;;;14.53;12.37;;;;;;;4.82;67.78;94184.38;6169119;23;20229;-64
2022/01/06 05:31:41;;;;;;;16.20;13.03;;;;;;;4.80;67.95;94167.22;6169598;23;20197;-63
2022/01/06 05:34:07;;;;;;;16.37;12.87;;;;;;;4.83;67.55;94154.75;6168618;23;20194;-63
2022/01/06 05:36:33;;;;;;;14.80;13.13;;;;;;;4.77;67.84;94189.16;6193736;23;20213;-63
2022/01/06 05:39:00;;;;;;;16.40;11.83;;;;;;;4.71;67.87;94152.44;6194453;23;20197;-63
2022/01/06 05:41:26;;;;;;;14.33;12.50;;;;;;;4.82;67.76;94150.50;6167096;23;20206;-63
2022/01/06 05:43:52;;;;;;;16.00;12.80;;;;;;;4.76;67.70;94176.28;6191267;23;20213;-62
2022/01/06 05:46:17;;;;;;;13.23;11.67;;;;;;;4.78;67.62;94156.13;6167965;23;20194;-62
2022/01/06 05:48:44;;;;;;;16.80;12.10;;;;;;;4.76;67.85;94189.31;6167774;23;20198;-63
2022/01/06 05:51:09;;;;;;;17.33;13.03;;;;;;;4.71;68.05;94150.66;6194479;23;20196;-64
2022/01/06 05:53:35;;;;;;;14.60;11.47;;;;;;;4.73;67.50;94176.53;6167126;23;20201;-63
2022/01/06 05:56:00;;;;;;;17.67;12.27;;;;;;;4.77;67.68;94175.31;6192802;23;20256;-63
2022/01/06 05:58:26;;;;;;;16.30;11.97;;;;;;;4.81;67.49;94141.06;6168065;23;20266;-62
2022/01/06 06:00:51;;;;;;;12.30;10.93;;;;;;;4.74;67.66;94162.59;6167444;23;20198;-62
2022/01/06 06:03:17;;;;;;;13.20;11.13;;;;;;;4.80;67.42;94175.03;6194206;23;20182;-64
2022/01/06 06:05:42;;;;;;;13.97;11.60;;;;;;;4.89;67.68;94173.38;6167788;23;20197;-63
2022/01/06 06:08:09;;;;;;;11.97;10.67;;;;;;;4.95;66.83;94152.84;6168578;23;20527;-63
2022/01/06 06:10:35;;;;;;;14.53;12.63;;;;;;;4.80;67.21;94177.66;6167681;23;20194;-63
2022/01/06 06:13:00;;;;;;;14.67;12.73;;;;;;;4.86;66.78;94180.53;6168309;23;20209;-63
2022/01/06 06:15:27;;;;;;;17.30;12.30;;;;;;;4.92;66.95;94170.50;6168048;23;20189;-64
2022/01/06 06:17:52;;;;;;;17.07;12.23;;;;;;;4.90;66.85;94177.66;6194131;23;20190;-63
2022/01/06 06:20:18;;;;;;;17.00;12.13;;;;;;;4.89;66.77;94162.97;6168497;23;20202;-63
2022/01/06 06:22:44;;;;;;;15.13;12.23;;;;;;;5.05;66.56;94186.69;6167692;23;20210;-63
2022/01/06 06:25:09;;;;;;;17.07;12.73;;;;;;;4.91;66.90;94185.31;6167935;23;20213;-63
2022/01/06 06:27:35;;;;;;;13.07;11.63;;;;;;;4.90;67.25;94143.78;6168393;23;20193;-64
2022/01/06 06:30:01;;;;;;;14.50;11.57;;;;;;;4.98;67.34;94173.41;6194024;23;20205;-62
2022/01/06 06:32:28;;;;;;;15.60;12.07;;;;;;;4.97;67.34;94197.81;6194371;23;20249;-62
2022/01/06 06:34:53;;;;;;;15.67;12.13;;;;;;;4.96;67.76;94174.50;6168003;23;20265;-63
2022/01/06 06:37:19;;;;;;;17.27;11.63;;;;;;;5.04;67.24;94188.47;6193441;23;20202;-63
2022/01/06 06:39:45;;;;;;;15.37;12.90;;;;;;;5.06;67.59;94185.72;6168257;23;20197;-63
2022/01/06 06:42:10;;;;;;;14.80;13.07;;;;;;;5.03;67.16;94189.44;6168939;23;20220;-64
2022/01/06 06:44:36;;;;;;;16.83;14.00;;;;;;;4.83;67.93;94180.78;6167777;23;20194;-63
2022/01/06 06:47:02;;;;;;;17.17;12.73;;;;;;;5.01;67.83;94175.72;6167740;23;20206;-64
2022/01/06 06:49:29;;;;;;;17.23;14.00;;;;;;;5.02;67.56;94207.81;6168364;23;20213;-65
2022/01/06 06:51:55;;;;;;;16.43;12.73;;;;;;;5.02;67.63;94199.97;6192082;23;20252;-63
2022/01/06 06:54:21;;;;;;;17.30;12.87;;;;;;;5.11;67.48;94193.97;6168643;23;20209;-64
2022/01/06 06:56:47;;;;;;;16.50;12.87;;;;;;;5.11;67.43;94204.38;6194561;23;20177;-64
2022/01/06 06:59:12;;;;;;;20.03;13.23;;;;;;;5.08;67.35;94225.50;6168524;23;20221;-64
2022/01/06 07:01:38;;;;;;;21.60;14.80;;;;;;;5.11;66.98;94199.19;6166722;23;20218;-64
2022/01/06 07:04:03;;;;;;;20.50;14.30;;;;;;;5.13;67.38;94176.38;6166505;23;20221;-64
2022/01/06 07:06:29;;;;;;;16.37;12.83;;;;;;;5.16;67.08;94196.13;6162657;23;20210;-65
2022/01/06 07:08:55;;;;;;;14.13;12.63;;;;;;;5.15;66.80;94195.31;6187414;23;20186;-65
2022/01/06 07:11:22;;;;;;;13.60;12.07;;;;;;;5.24;66.31;94194.50;6163199;23;20262;-63
2022/01/06 07:13:48;;;;;;;15.07;11.93;;;;;;;5.25;65.90;94190.91;6164367;23;20202;-64
2022/01/06 07:16:13;;;;;;;17.50;12.47;;;;;;;5.30;66.15;94206.97;6162603;23;20202;-66
2022/01/06 07:18:39;;;;;;;15.37;11.93;;;;;;;5.31;65.66;94221.63;6159267;23;20254;-66
2022/01/06 07:21:04;;;;;;;15.73;11.40;;;;;;;5.36;66.12;94215.19;6165845;23;20175;-66
2022/01/06 07:23:30;;;;;;;14.03;11.70;;;;;;;5.55;65.62;94222.16;6163815;23;20205;-65
2022/01/06 07:25:55;;;;;;;13.90;11.67;;;;;;;5.61;65.12;94225.00;6163653;23;20217;-65
2022/01/06 07:28:21;;;;;;;14.60;12.20;;;;;;;5.71;64.84;94215.38;6162862;23;20258;-67
2022/01/06 07:30:46;;;;;;;16.80;12.80;;;;;;;5.76;64.71;94209.72;6164010;23;20250;-64
2022/01/06 07:33:11;;;;;;;14.83;11.60;;;;;;;5.88;64.35;94228.63;6166186;23;20185;-64
2022/01/06 07:35:37;;;;;;;12.90;11.40;;;;;;;6.11;63.83;94226.53;6189814;23;20198;-66
2022/01/06 07:38:03;;;;;;;14.47;12.13;;;;;;;6.18;63.42;94197.09;6164433;23;20195;-64
2022/01/06 07:40:28;;;;;;;15.30;11.90;;;;;;;6.38;63.30;94225.72;6166643;23;20297;-65
2022/01/06 07:42:54;;;;;;;17.20;12.33;;;;;;;6.46;63.43;94217.97;6166089;23;20222;-65
2022/01/06 07:45:19;;;;;;;18.50;12.10;;;;;;;6.64;62.10;94233.69;6164189;23;20187;-65
2022/01/06 07:48:15;;;;;;;15.30;11.73;;;;;;;6.56;62.50;94229.19;6165753;23;20171;-66
2022/01/06 07:50:34;;;;;;;14.90;11.63;;;;;;;6.58;62.38;94229.06;6166271;23;20199;-64
2022/01/06 07:52:59;;;;;;;18.20;12.87;;;;;;;6.60;62.53;94248.84;6164454;23;20213;-63
2022/01/06 07:55:25;;;;;;;13.97;11.13;;;;;;;6.73;62.47;94243.22;6165349;23;20448;-65
2022/01/06 07:57:51;;;;;;;15.80;11.97;;;;;;;6.77;61.97;94235.94;6163858;23;20210;-64
2022/01/06 08:00:19;;;;;;;16.10;12.13;;;;;;;6.80;61.88;94225.19;6165226;23;20197;-66
2022/01/06 08:02:45;;;;;;;16.67;11.90;;;;;;;6.77;61.93;94233.31;6165452;23;20264;-65
2022/01/06 08:05:13;;;;;;;17.20;12.20;;;;;;;6.83;61.88;94236.16;6164175;23;20201;-67
2022/01/06 08:07:39;;;;;;;21.57;12.20;;;;;;;6.96;61.58;94254.09;6164731;23;20210;-66
2022/01/06 08:10:06;;;;;;;16.10;12.57;;;;;;;7.04;61.44;94258.59;6166567;23;20206;-65
2022/01/06 08:12:32;;;;;;;14.77;12.70;;;;;;;7.07;61.25;94232.97;6165130;23;20179;-64
2022/01/06 08:14:58;;;;;;;18.10;12.13;;;;;;;7.13;61.16;94230.72;6189997;23;20190;-66
2022/01/06 08:17:23;;;;;;;15.87;12.00;;;;;;;7.23;60.82;94268.06;6189833;23;20195;-64
2022/01/06 08:19:49;;;;;;;20.77;15.13;;;;;;;7.37;60.39;94264.91;6164675;23;20238;-64
2022/01/06 08:22:14;;;;;;;16.93;12.80;;;;;;;7.41;60.12;94258.44;6164427;23;20198;-65
2022/01/06 08:24:40;;;;;;;13.90;11.83;;;;;;;7.56;59.68;94248.22;6189806;23;20234;-64
2022/01/06 08:27:08;;;;;;;13.10;11.30;;;;;;;7.67;59.31;94275.94;6165847;23;20198;-62
2022/01/06 08:29:38;;;;;;;16.03;12.00;;;;;;;7.77;58.69;94266.22;6165648;23;20251;-65
2022/01/06 08:32:05;;;;;;;14.47;11.10;;;;;;;7.74;58.69;94241.16;6164668;23;20245;-64
2022/01/06 08:34:31;;;;;;;16.03;12.47;;;;;;;7.81;58.71;94249.25;6188642;23;20203;-63
2022/01/06 08:36:56;;;;;;;15.33;12.23;;;;;;;7.81;58.87;94244.00;6164428;23;20194;-63
2022/01/06 08:39:22;;;;;;;15.17;11.80;;;;;;;8.05;57.97;94253.00;6189563;23;20210;-64
2022/01/06 08:41:49;;;;;;;17.30;13.30;;;;;;;8.18;57.67;94258.63;6164783;23;20181;-64
2022/01/06 08:44:15;;;;;;;15.60;11.93;;;;;;;8.33;56.88;94258.84;6190081;23;20195;-63
2022/01/06 08:46:41;;;;;;;13.53;11.33;;;;;;;8.31;56.94;94259.03;6164654;23;20195;-65
2022/01/06 08:49:11;;;;;;;17.73;12.03;;;;;;;8.46;56.75;94250.59;6165481;23;20212;-66
2022/01/06 08:51:37;;;;;;;19.70;12.77;;;;;;;8.44;56.97;94245.50;6165249;23;20178;-67
2022/01/06 08:54:03;;;;;;;17.70;12.60;;;;;;;8.49;56.75;94245.84;6189930;23;20186;-64
2022/01/06 08:56:28;;;;;;;15.27;12.37;;;;;;;8.70;55.25;94263.78;6165417;23;20195;-65
2022/01/06 08:58:55;;;;;;;15.43;12.60;;;;;;;8.72;55.38;94237.44;6165026;23;20222;-65
2022/01/06 09:01:20;;;;;;;18.80;13.43;;;;;;;8.70;55.91;94226.28;6190356;23;20195;-64
2022/01/06 09:03:46;;;;;;;18.17;12.63;;;;;;;8.81;55.49;94223.34;6166071;23;20258;-64
2022/01/06 09:06:11;;;;;;;19.23;12.37;;;;;;;8.98;54.09;94234.69;6193676;23;20190;-63
2022/01/06 09:08:37;;;;;;;16.60;12.77;;;;;;;9.01;54.53;94234.38;6195220;23;20205;-64
2022/01/06 09:11:02;;;;;;;19.00;13.70;;;;;;;8.93;55.20;94242.22;6193084;23;20205;-65
2022/01/06 09:13:28;;;;;;;17.03;13.30;;;;;;;9.03;54.08;94245.50;6194664;23;20229;-62
2022/01/06 09:15:54;;;;;;;19.23;13.30;;;;;;;9.22;53.66;94236.50;6169623;23;20208;-64
2022/01/06 09:18:19;;;;;;;18.57;14.40;;;;;;;9.26;53.90;94228.16;6170548;23;20248;-63
2022/01/06 09:20:45;;;;;;;19.27;13.97;;;;;;;9.32;53.48;94224.06;6170271;23;20178;-62
2022/01/06 09:23:10;;;;;;;19.57;14.53;;;;;;;9.52;53.30;94223.75;6195069;23;20265;-66
2022/01/06 09:25:36;;;;;;;20.10;14.47;;;;;;;9.56;52.54;94220.63;6167701;23;20260;-65
2022/01/06 09:28:01;;;;;;;19.90;13.77;;;;;;;9.63;52.98;94202.44;6193163;23;20198;-65
2022/01/06 09:30:27;;;;;;;20.57;14.40;;;;;;;9.82;52.56;94217.81;6167401;23;20186;-69
2022/01/06 09:32:55;;;;;;;17.23;14.80;;;;;;;9.86;52.02;94226.16;6169691;23;20182;-65
2022/01/06 09:35:22;;;;;;;18.77;14.20;;;;;;;9.86;51.47;94208.63;6195552;23;20258;-65
2022/01/06 09:37:48;;;;;;;20.93;14.57;;;;;;;9.88;51.54;94196.13;6169310;23;20198;-65
2022/01/06 09:40:13;;;;;;;19.60;14.63;;;;;;;10.02;51.83;94193.81;6169788;23;20276;-66
2022/01/06 09:42:42;;;;;;;21.63;15.37;;;;;;;10.17;51.78;94197.38;6193884;23;20213;-68
2022/01/06 09:45:09;;;;;;;21.27;15.43;;;;;;;10.29;50.93;94201.31;6169839;23;20186;-64
2022/01/06 09:47:36;;;;;;;20.37;15.83;;;;;;;10.36;51.29;94198.81;6168889;23;20221;-66
2022/01/06 09:50:03;;;;;;;22.07;15.20;;;;;;;10.49;51.45;94195.66;6195591;23;20198;-65
2022/01/06 09:52:28;;;;;;;20.87;15.93;;;;;;;10.68;50.23;94191.78;6195623;23;20202;-65
2022/01/06 09:54:54;;;;;;;21.50;15.20;;;;;;;10.75;50.31;94203.25;6170074;23;21042;-65
2022/01/06 09:57:19;;;;;;;18.17;15.13;;;;;;;10.75;49.85;94209.31;6169367;23;20205;-66
2022/01/06 09:59:45;;;;;;;19.23;15.30;;;;;;;10.91;48.75;94191.81;6168968;23;20213;-64
2022/01/06 10:02:16;;;;;;;19.43;13.67;;;;;;;11.06;48.82;94195.31;6169074;23;20265;-65
2022/01/06 10:04:56;;;;;;;27.27;16.13;;;;;;;11.17;49.53;94197.56;6193455;23;20194;-64
2022/01/06 10:07:22;;;;;;;24.60;15.90;;;;;;;11.29;48.32;94194.53;6168563;23;20308;-63
2022/01/06 10:09:49;;;;;;;22.93;16.50;;;;;;;11.37;48.31;94200.53;6168877;23;20190;-66
2022/01/06 10:12:15;;;;;;;19.60;15.47;;;;;;;11.39;48.11;94200.38;6168620;23;20178;-65
2022/01/06 10:14:46;;;;;;;20.67;15.47;;;;;;;11.58;47.96;94201.69;6194516;23;20213;-65
2022/01/06 10:17:27;;;;;;;21.93;14.93;;;;;;;11.75;47.42;94202.34;6167764;23;20210;-63
2022/01/06 10:19:54;;;;;;;20.60;15.67;;;;;;;11.88;47.60;94197.31;6193595;23;20235;-64
2022/01/06 10:22:20;;;;;;;20.37;15.47;;;;;;;11.99;47.09;94198.69;6168443;23;20194;-63
2022/01/06 10:24:49;;;;;;;20.07;15.43;;;;;;;12.19;46.67;94185.78;6193036;23;20201;-63
2022/01/06 10:27:21;;;;;;;19.40;15.33;;;;;;;12.35;46.48;94185.63;6194152;23;20174;-66
2022/01/06 10:29:49;;;;;;;22.03;14.90;;;;;;;12.46;45.90;94182.53;6191560;23;20225;-64
2022/01/06 10:32:18;;;;;;;20.27;15.63;;;;;;;12.54;46.24;94192.16;6167003;23;20202;-65
2022/01/06 10:34:47;;;;;;;22.73;16.03;;;;;;;12.72;45.38;94192.59;6191332;23;20213;-64
2022/01/06 10:37:21;;;;;;;21.47;17.10;;;;;;;12.87;44.86;94195.19;6189783;23;20241;-66
2022/01/06 10:39:48;;;;;;;25.17;15.80;;;;;;;12.99;44.17;94192.84;6163868;23;20198;-65
2022/01/06 10:42:14;;;;;;;19.00;14.50;;;;;;;12.91;43.83;94175.34;6190839;23;20189;-65
2022/01/06 10:44:50;;;;;;;21.63;14.53;;;;;;;13.07;44.29;94176.94;6190592;23;20261;-65
2022/01/06 10:47:38;;;;;;;17.87;13.47;;;;;;;13.23;43.37;94171.41;6166854;23;20206;-67
2022/01/06 10:50:18;;;;;;;16.27;12.60;;;;;;;13.44;42.81;94172.41;6165078;23;20209;-65
2022/01/06 10:52:55;;;;;;;20.47;12.47;;;;;;;13.56;42.16;94168.28;6163564;23;20260;-66
2022/01/06 10:55:25;;;;;;;19.60;11.80;;;;;;;13.92;41.52;94171.78;6164336;23;20198;-63
2022/01/06 10:57:59;;;;;;;18.27;10.63;;;;;;;14.01;41.04;94158.25;6191265;23;20210;-65
2022/01/06 11:00:28;;;;;;;14.60;10.48;;;;;;;14.23;40.48;94158.97;6166852;23;20197;-67
2022/01/06 11:03:05;;;;;;;14.45;9.15;;;;;;;14.39;40.10;94170.25;6167552;23;20186;-66
2022/01/06 11:05:30;;;;;;;14.55;10.15;;;;;;;14.61;39.82;94165.69;6194040;23;20206;-64
2022/01/06 11:07:56;;;;;;;16.90;10.10;;;;;;;14.64;39.44;94162.66;6192554;23;20213;-64
2022/01/06 11:10:22;;;;;;;11.73;9.37;;;;;;;14.75;39.37;94164.72;6166802;23;20252;-65
2022/01/06 11:12:50;;;;;;;17.70;9.00;;;;;;;14.74;38.30;94157.81;6167612;23;20202;-64
2022/01/06 11:15:16;;;;;;;11.77;8.43;;;;;;;14.97;38.24;94149.53;6167717;23;20230;-66
2022/01/06 11:17:46;;;;;;;9.48;5.90;;;;;;;15.10;36.91;94162.81;6166727;23;20194;-64
2022/01/06 11:20:12;;;;;;;7.90;4.85;;;;;;;15.29;35.45;94152.44;6192446;23;20202;-65
2022/01/06 11:22:50;;;;;;;9.60;5.07;;;;;;;15.38;35.20;94149.41;6167207;23;20257;-69
2022/01/06 11:25:15;;;;;;;12.15;7.63;;;;;;;15.65;35.68;94147.56;6166572;23;20193;-67
2022/01/06 11:27:41;;;;;;;10.50;7.60;;;;;;;15.95;35.12;94149.00;6193270;23;20197;-67
2022/01/06 11:30:15;;;;;;;16.00;8.95;;;;;;;16.06;35.26;94151.03;6193889;23;20178;-65
2022/01/06 11:32:42;;;;;;;17.85;7.97;;;;;;;16.09;34.53;94132.06;6192328;23;20202;-65
2022/01/06 11:35:15;;;;;;;11.63;7.72;;;;;;;16.35;34.25;94152.41;6167408;23;20309;-65